Flight Track Log - Related Links

Times and Time Zones

All times are in EDT time to prevent confusion due to time zone crossing. See the LOF3416 flight status page for this flight to view local times or setup timezone preferences in your user account.


Time Position Orientation Groundspeed Altitude Reporting Facility
EDT Latitude Longitude Course Direction KTS MPH feet Rate Location/Type
Wed 06:00:55 PM 41.9167 -87.9333 197° South 175 201 3,600  Level Chicago TRACON
Wed 06:02:48 PM 41.8150 -87.9681 194° South 235 270 5,000 1,057 Climbing Chicago Center
Wed 06:03:51 PM 41.7453 -87.9744 184° South 257 296 6,700 1,872 Climbing Chicago Center
Wed 06:04:53 PM 41.6756 -88.0164 204° Southwest 277 319 8,900 2,323 Climbing Chicago Center
Wed 06:05:55 PM 41.5886 -88.0689 204° Southwest 286 329 11,500 1,935 Climbing Chicago Center
Wed 06:06:00 PM 41.6107 -88.3764 197° South  Level Estimated
Wed 06:06:57 PM 41.5128 -88.1153 205° Southwest 302 348 12,900  Level Chicago Center
Wed 06:07:59 PM 41.4303 -88.1650 204° Southwest 337 388 13,900 1,016 Climbing Chicago Center
Wed 06:09:01 PM 41.3200 -88.2186 200° South 362 417 15,000 1,016 Climbing Chicago Center
Wed 06:10:03 PM 41.2233 -88.2625 199° South 370 426 16,000 968 Climbing Chicago Center
Wed 06:11:05 PM 41.1233 -88.3078 199° South 380 437 17,000 823 Climbing Chicago Center
Wed 06:12:07 PM 41.0219 -88.3536 199° South 386 444 17,700 864 Climbing Chicago Center
Wed 06:13:10 PM 40.8986 -88.4081 198° South 391 450 18,800 1,008 Climbing Chicago Center
Wed 06:14:12 PM 40.7950 -88.4553 199° South 396 456 19,800 968 Climbing Chicago Center
Wed 06:15:14 PM 40.6892 -88.5031 199° South 404 465 20,800 968 Climbing Chicago Center
Wed 06:16:16 PM 40.5819 -88.5489 198° South 406 467 21,800 968 Climbing Chicago Center
Wed 06:17:18 PM 40.4736 -88.5981 199° South 411 473 22,800 919 Climbing Chicago Center
Wed 06:18:20 PM 40.3639 -88.6467 199° South 414 476 23,700 1,016 Climbing Chicago Center
Wed 06:19:22 PM 40.2522 -88.7481 215° Southwest 415 478 24,900 1,065 Climbing Chicago Center
Wed 06:20:24 PM 40.1711 -88.8542 225° Southwest 414 476 25,900 968 Climbing Chicago Center
Wed 06:21:26 PM 40.0883 -88.9597 224° Southwest 414 476 26,900 919 Climbing Chicago Center
Wed 06:22:28 PM 40.0047 -89.0644 224° Southwest 415 478 27,800 555 Climbing Chicago Center
Wed 06:23:25 PM 39.9197 -89.1706 224° Southwest 416 479 28,000 66 Climbing Kansas City Center
Wed 06:25:29 PM 39.7400 -89.3972 224° Southwest 437 503 28,000  Level Kansas City Center
Wed 06:26:30 PM 39.6478 -89.5133 224° Southwest 448 516 28,000  Level Kansas City Center
Wed 06:27:31 PM 39.5547 -89.6319 225° Southwest 458 527 28,000  Level Kansas City Center
Wed 06:28:35 PM 39.4619 -89.7467 224° Southwest 461 531 28,000  Level Kansas City Center
Wed 06:29:38 PM 39.3697 -89.8592 223° Southwest 457 526 28,000  Level Kansas City Center
Wed 06:30:38 PM 39.2589 -90.0000 225° Southwest 463 533 28,000  Level Kansas City Center
Wed 06:31:42 PM 39.1653 -90.1139 223° Southwest 462 532 28,000  Level Kansas City Center
Wed 06:32:43 PM 39.0742 -90.2253 224° Southwest 454 522 28,000  Level Kansas City Center
Wed 06:33:44 PM 38.9833 -90.3358 223° Southwest 450 518 28,000  Level Kansas City Center
Wed 06:34:47 PM 38.8867 -90.4533 223° Southwest 436 502 28,000  Level Kansas City Center
Wed 06:35:50 PM 38.8125 -90.5811 233° Southwest 451 519 28,000  Level Kansas City Center
Wed 06:36:51 PM 38.7450 -90.7133 237° Southwest 444 511 28,000  Level Kansas City Center
Wed 06:37:51 PM 38.6772 -90.8475 237° Southwest 447 514 28,000  Level Kansas City Center
Wed 06:38:56 PM 38.6103 -90.9797 237° Southwest 444 511 28,000  Level Kansas City Center
Wed 06:39:56 PM 38.5264 -91.1386 236° Southwest 447 514 28,000  Level Kansas City Center
Wed 06:40:59 PM 38.4586 -91.2708 237° Southwest 446 513 28,000  Level Kansas City Center
Wed 06:42:00 PM 38.3897 -91.4022 236° Southwest 445 512 28,000 -336 Level Kansas City Center
Wed 06:43:04 PM 38.3214 -91.5339 237° Southwest 445 512 27,300 -810 Descending Kansas City Center
Wed 06:44:06 PM 38.2550 -91.6611 236° Southwest 432 497 26,300 -1,122 Descending Kansas City Center
Wed 06:45:07 PM 38.1889 -91.7864 236° Southwest 427 491 25,000 -1,488 Descending Kansas City Center
Wed 06:46:11 PM 38.1206 -91.9158 236° Southwest 438 504 23,200 -1,951 Descending Kansas City Center
Wed 06:47:10 PM 38.0753 -92.0889 252° West 435 501 21,000 -1,902 Descending Kansas City Center
Wed 06:48:14 PM 38.0475 -92.2369 257° West 434 499 19,300 -1,548 Descending Kansas City Center
Wed 06:49:14 PM 38.0247 -92.3761 258° West 419 482 17,800 -1,597 Descending Kansas City Center
Wed 06:50:18 PM 37.9969 -92.5333 257° West 392 451 16,000 -864 Descending Kansas City Center
Wed 06:51:19 PM 37.9556 -92.6561 247° West 392 451 16,000  Level Kansas City Center
Wed 06:52:20 PM 37.8775 -92.7456 222° Southwest 382 440 16,000 -532 Level Kansas City Center
Wed 06:53:23 PM 37.7942 -92.8275 218° Southwest 376 433 14,900 -1,536 Descending Kansas City Center
Wed 06:54:25 PM 37.7106 -92.8919 211° Southwest 352 405 12,800 -1,968 Descending Kansas City Center
Wed 06:55:28 PM 37.6322 -92.9550 213° Southwest 341 392 10,800 -1,790 Descending Kansas City Center
Wed 06:56:29 PM 37.5494 -93.0214 212° Southwest 313 360 9,100 -1,707 Descending Kansas City Center
Wed 06:57:31 PM 37.4856 -93.0719 212° Southwest 291 335 7,300 -1,742 Descending Kansas City Center
Wed 06:58:33 PM 37.4244 -93.1211 213° Southwest 274 315 5,500 -1,728 Descending Kansas City Center
Wed 06:59:36 PM 37.3644 -93.1689 212° Southwest 263 303 3,700 -1,200 Descending Kansas City Center
Wed 07:00:38 PM 37.3053 -93.2156 212° Southwest 257 296 3,000 -336 Descending Kansas City Center
Wed 07:01:41 PM 37.2519 -93.2586 213° Southwest 243 280 3,000 -194 Level Kansas City Center
Wed 07:02:42 PM 37.2561 -93.3103 276° West 202 232 2,600 -290 Descending Kansas City Center
Wed 07:03:45 PM 37.2858 -93.3456 317° Northwest 194 223 2,400 -190 Descending Kansas City Center
Wed 07:05:00 PM 37.2457 -93.3886 202° Southwest  Level Estimated

Login

Don't have an account? Register now (free) for customized features, flight alerts, and more!